<?xml version="1.0" encoding="UTF-8" standalone="no" ?>
<gpx xmlns="http://www.topografix.com/GPX/1/1" xmlns:xsi="http://www.w3.org/2001/XMLSchema-instance" xsi:schemaLocation="http://www.topografix.com/GPX/1/1 http://www.topografix.com/GPX/1/1/gpx.xsd" version="1.1" creator="VisuGPX - https://www.visugpx.com">
  <metadata>
    <name>La Grande Cheminée</name>
  </metadata>
  <wpt lat="46.68887" lon="5.947">
    <ele>534</ele>
    <name><![CDATA[Parking Pont de la Saine. Le chemin longe la]]></name>
  </wpt>
  <wpt lat="46.68008" lon="5.93889">
    <ele>632</ele>
    <name><![CDATA[À gauche en épingle en montée]]></name>
  </wpt>
  <wpt lat="46.68075" lon="5.94553">
    <ele>709</ele>
    <name><![CDATA[Étang des Perchettes]]></name>
  </wpt>
  <wpt lat="46.68132" lon="5.9497">
    <ele>770</ele>
    <name><![CDATA[Vers la Grande Cheminée]]></name>
  </wpt>
  <wpt lat="46.68315" lon="5.95133">
    <ele>745</ele>
    <name><![CDATA[La Grande Cheminée]]></name>
  </wpt>
  <wpt lat="46.68109" lon="5.95254">
    <ele>728</ele>
    <name><![CDATA[Belvédère du Pré Grillet.]]></name>
  </wpt>
  <wpt lat="46.67754" lon="5.96218">
    <ele>746</ele>
    <name><![CDATA[Belvédère à Taiclet.]]></name>
  </wpt>
  <wpt lat="46.67923" lon="5.96487">
    <ele>701</ele>
    <name><![CDATA[Les Prés Grillets]]></name>
  </wpt>
  <wpt lat="46.68828" lon="5.95055">
    <ele>546</ele>
    <name><![CDATA[La]]></name>
  </wpt>
  <wpt lat="46.68887" lon="5.94699">
    <ele>534</ele>
    <name><![CDATA[Parking Pont de la Saine]]></name>
  </wpt>
  <trk>
    <name><![CDATA[La Grande Cheminée]]></name>
    <trkseg>
      <trkpt lat="46.68887" lon="5.947">
        <ele>534</ele>
        <time>2021-05-10T09:58:47+02:00</time>
      </trkpt>
      <trkpt lat="46.68878" lon="5.94709">
        <ele>534</ele>
        <time>2021-05-10T09:58:52+02:00</time>
      </trkpt>
      <trkpt lat="46.68865" lon="5.94734">
        <ele>535</ele>
        <time>2021-05-10T09:58:57+02:00</time>
      </trkpt>
      <trkpt lat="46.6883" lon="5.94819">
        <ele>541</ele>
        <time>2021-05-10T09:59:02+02:00</time>
      </trkpt>
      <trkpt lat="46.68814" lon="5.94813">
        <ele>545</ele>
        <time>2021-05-10T09:59:07+02:00</time>
      </trkpt>
      <trkpt lat="46.68778" lon="5.94609">
        <ele>538</ele>
        <time>2021-05-10T09:59:12+02:00</time>
      </trkpt>
      <trkpt lat="46.68768" lon="5.9458">
        <ele>539</ele>
        <time>2021-05-10T09:59:17+02:00</time>
      </trkpt>
      <trkpt lat="46.68757" lon="5.94566">
        <ele>541</ele>
        <time>2021-05-10T09:59:22+02:00</time>
      </trkpt>
      <trkpt lat="46.68728" lon="5.9455">
        <ele>547</ele>
        <time>2021-05-10T09:59:27+02:00</time>
      </trkpt>
      <trkpt lat="46.6872" lon="5.94546">
        <ele>549</ele>
        <time>2021-05-10T09:59:32+02:00</time>
      </trkpt>
      <trkpt lat="46.68687" lon="5.94526">
        <ele>556</ele>
        <time>2021-05-10T09:59:37+02:00</time>
      </trkpt>
      <trkpt lat="46.68671" lon="5.94514">
        <ele>559</ele>
        <time>2021-05-10T09:59:42+02:00</time>
      </trkpt>
      <trkpt lat="46.68651" lon="5.94494">
        <ele>562</ele>
        <time>2021-05-10T09:59:47+02:00</time>
      </trkpt>
      <trkpt lat="46.68636" lon="5.94471">
        <ele>563</ele>
        <time>2021-05-10T09:59:52+02:00</time>
      </trkpt>
      <trkpt lat="46.68612" lon="5.94423">
        <ele>566</ele>
        <time>2021-05-10T09:59:57+02:00</time>
      </trkpt>
      <trkpt lat="46.68596" lon="5.9438">
        <ele>567</ele>
        <time>2021-05-10T10:00:02+02:00</time>
      </trkpt>
      <trkpt lat="46.6859" lon="5.94361">
        <ele>567</ele>
        <time>2021-05-10T10:00:07+02:00</time>
      </trkpt>
      <trkpt lat="46.68578" lon="5.94345">
        <ele>569</ele>
        <time>2021-05-10T10:00:12+02:00</time>
      </trkpt>
      <trkpt lat="46.68563" lon="5.94338">
        <ele>570</ele>
        <time>2021-05-10T10:00:17+02:00</time>
      </trkpt>
      <trkpt lat="46.68549" lon="5.94336">
        <ele>572</ele>
        <time>2021-05-10T10:00:22+02:00</time>
      </trkpt>
      <trkpt lat="46.68532" lon="5.94328">
        <ele>573</ele>
        <time>2021-05-10T10:00:27+02:00</time>
      </trkpt>
      <trkpt lat="46.68511" lon="5.94325">
        <ele>576</ele>
        <time>2021-05-10T10:00:32+02:00</time>
      </trkpt>
      <trkpt lat="46.68492" lon="5.94327">
        <ele>579</ele>
        <time>2021-05-10T10:00:37+02:00</time>
      </trkpt>
      <trkpt lat="46.6847" lon="5.94324">
        <ele>584</ele>
        <time>2021-05-10T10:00:42+02:00</time>
      </trkpt>
      <trkpt lat="46.68457" lon="5.94317">
        <ele>585</ele>
        <time>2021-05-10T10:00:47+02:00</time>
      </trkpt>
      <trkpt lat="46.68442" lon="5.94304">
        <ele>586</ele>
        <time>2021-05-10T10:00:52+02:00</time>
      </trkpt>
      <trkpt lat="46.68429" lon="5.94289">
        <ele>586</ele>
        <time>2021-05-10T10:00:57+02:00</time>
      </trkpt>
      <trkpt lat="46.68418" lon="5.94271">
        <ele>585</ele>
        <time>2021-05-10T10:01:02+02:00</time>
      </trkpt>
      <trkpt lat="46.68402" lon="5.94229">
        <ele>582</ele>
        <time>2021-05-10T10:01:07+02:00</time>
      </trkpt>
      <trkpt lat="46.68385" lon="5.94209">
        <ele>583</ele>
        <time>2021-05-10T10:01:12+02:00</time>
      </trkpt>
      <trkpt lat="46.68371" lon="5.942">
        <ele>585</ele>
        <time>2021-05-10T10:01:17+02:00</time>
      </trkpt>
      <trkpt lat="46.68335" lon="5.9419">
        <ele>590</ele>
        <time>2021-05-10T10:01:22+02:00</time>
      </trkpt>
      <trkpt lat="46.68319" lon="5.94186">
        <ele>593</ele>
        <time>2021-05-10T10:01:27+02:00</time>
      </trkpt>
      <trkpt lat="46.68304" lon="5.94175">
        <ele>596</ele>
        <time>2021-05-10T10:01:32+02:00</time>
      </trkpt>
      <trkpt lat="46.68293" lon="5.94162">
        <ele>597</ele>
        <time>2021-05-10T10:01:37+02:00</time>
      </trkpt>
      <trkpt lat="46.68279" lon="5.94136">
        <ele>596</ele>
        <time>2021-05-10T10:01:42+02:00</time>
      </trkpt>
      <trkpt lat="46.6826" lon="5.94106">
        <ele>595</ele>
        <time>2021-05-10T10:01:47+02:00</time>
      </trkpt>
      <trkpt lat="46.68242" lon="5.94076">
        <ele>595</ele>
        <time>2021-05-10T10:01:52+02:00</time>
      </trkpt>
      <trkpt lat="46.68232" lon="5.94071">
        <ele>598</ele>
        <time>2021-05-10T10:01:57+02:00</time>
      </trkpt>
      <trkpt lat="46.6822" lon="5.94068">
        <ele>603</ele>
        <time>2021-05-10T10:02:02+02:00</time>
      </trkpt>
      <trkpt lat="46.68191" lon="5.94058">
        <ele>613</ele>
        <time>2021-05-10T10:02:07+02:00</time>
      </trkpt>
      <trkpt lat="46.68179" lon="5.94049">
        <ele>615</ele>
        <time>2021-05-10T10:02:12+02:00</time>
      </trkpt>
      <trkpt lat="46.68165" lon="5.94032">
        <ele>616</ele>
        <time>2021-05-10T10:02:17+02:00</time>
      </trkpt>
      <trkpt lat="46.68148" lon="5.94006">
        <ele>613</ele>
        <time>2021-05-10T10:02:22+02:00</time>
      </trkpt>
      <trkpt lat="46.68128" lon="5.93972">
        <ele>611</ele>
        <time>2021-05-10T10:02:27+02:00</time>
      </trkpt>
      <trkpt lat="46.68115" lon="5.93958">
        <ele>612</ele>
        <time>2021-05-10T10:02:32+02:00</time>
      </trkpt>
      <trkpt lat="46.681" lon="5.9395">
        <ele>615</ele>
        <time>2021-05-10T10:02:37+02:00</time>
      </trkpt>
      <trkpt lat="46.68063" lon="5.93945">
        <ele>627</ele>
        <time>2021-05-10T10:02:42+02:00</time>
      </trkpt>
      <trkpt lat="46.68049" lon="5.93938">
        <ele>631</ele>
        <time>2021-05-10T10:02:47+02:00</time>
      </trkpt>
      <trkpt lat="46.68039" lon="5.93927">
        <ele>631</ele>
        <time>2021-05-10T10:02:52+02:00</time>
      </trkpt>
      <trkpt lat="46.68024" lon="5.93908">
        <ele>631</ele>
        <time>2021-05-10T10:02:57+02:00</time>
      </trkpt>
      <trkpt lat="46.68008" lon="5.93889">
        <ele>632</ele>
        <time>2021-05-10T10:03:02+02:00</time>
      </trkpt>
      <trkpt lat="46.68003" lon="5.93907">
        <ele>638</ele>
        <time>2021-05-10T10:03:07+02:00</time>
      </trkpt>
      <trkpt lat="46.6801" lon="5.93927">
        <ele>642</ele>
        <time>2021-05-10T10:03:12+02:00</time>
      </trkpt>
      <trkpt lat="46.68036" lon="5.93998">
        <ele>652</ele>
        <time>2021-05-10T10:03:17+02:00</time>
      </trkpt>
      <trkpt lat="46.6805" lon="5.9403">
        <ele>657</ele>
        <time>2021-05-10T10:03:22+02:00</time>
      </trkpt>
      <trkpt lat="46.68064" lon="5.94058">
        <ele>659</ele>
        <time>2021-05-10T10:03:27+02:00</time>
      </trkpt>
      <trkpt lat="46.68081" lon="5.94085">
        <ele>660</ele>
        <time>2021-05-10T10:03:32+02:00</time>
      </trkpt>
      <trkpt lat="46.68097" lon="5.94119">
        <ele>665</ele>
        <time>2021-05-10T10:03:37+02:00</time>
      </trkpt>
      <trkpt lat="46.68127" lon="5.94164">
        <ele>668</ele>
        <time>2021-05-10T10:03:42+02:00</time>
      </trkpt>
      <trkpt lat="46.68125" lon="5.94194">
        <ele>673</ele>
        <time>2021-05-10T10:03:47+02:00</time>
      </trkpt>
      <trkpt lat="46.68108" lon="5.94207">
        <ele>681</ele>
        <time>2021-05-10T10:03:52+02:00</time>
      </trkpt>
      <trkpt lat="46.68086" lon="5.94219">
        <ele>692</ele>
        <time>2021-05-10T10:03:57+02:00</time>
      </trkpt>
      <trkpt lat="46.68063" lon="5.94218">
        <ele>699</ele>
        <time>2021-05-10T10:04:02+02:00</time>
      </trkpt>
      <trkpt lat="46.68045" lon="5.94223">
        <ele>706</ele>
        <time>2021-05-10T10:04:07+02:00</time>
      </trkpt>
      <trkpt lat="46.68033" lon="5.94237">
        <ele>710</ele>
        <time>2021-05-10T10:04:12+02:00</time>
      </trkpt>
      <trkpt lat="46.68034" lon="5.94263">
        <ele>710</ele>
        <time>2021-05-10T10:04:17+02:00</time>
      </trkpt>
      <trkpt lat="46.68039" lon="5.94278">
        <ele>708</ele>
        <time>2021-05-10T10:04:22+02:00</time>
      </trkpt>
      <trkpt lat="46.68039" lon="5.94301">
        <ele>707</ele>
        <time>2021-05-10T10:04:27+02:00</time>
      </trkpt>
      <trkpt lat="46.68031" lon="5.94322">
        <ele>707</ele>
        <time>2021-05-10T10:04:32+02:00</time>
      </trkpt>
      <trkpt lat="46.68014" lon="5.94331">
        <ele>708</ele>
        <time>2021-05-10T10:04:37+02:00</time>
      </trkpt>
      <trkpt lat="46.67993" lon="5.94337">
        <ele>710</ele>
        <time>2021-05-10T10:04:42+02:00</time>
      </trkpt>
      <trkpt lat="46.67983" lon="5.94345">
        <ele>710</ele>
        <time>2021-05-10T10:04:47+02:00</time>
      </trkpt>
      <trkpt lat="46.67973" lon="5.94363">
        <ele>711</ele>
        <time>2021-05-10T10:04:52+02:00</time>
      </trkpt>
      <trkpt lat="46.67964" lon="5.94385">
        <ele>713</ele>
        <time>2021-05-10T10:04:57+02:00</time>
      </trkpt>
      <trkpt lat="46.67968" lon="5.94413">
        <ele>712</ele>
        <time>2021-05-10T10:05:02+02:00</time>
      </trkpt>
      <trkpt lat="46.67984" lon="5.9443">
        <ele>711</ele>
        <time>2021-05-10T10:05:07+02:00</time>
      </trkpt>
      <trkpt lat="46.68026" lon="5.94486">
        <ele>715</ele>
        <time>2021-05-10T10:05:12+02:00</time>
      </trkpt>
      <trkpt lat="46.68062" lon="5.94533">
        <ele>711</ele>
        <time>2021-05-10T10:05:17+02:00</time>
      </trkpt>
      <trkpt lat="46.68075" lon="5.94553">
        <ele>709</ele>
        <time>2021-05-10T10:05:22+02:00</time>
      </trkpt>
      <trkpt lat="46.6806" lon="5.94586">
        <ele>719</ele>
        <time>2021-05-10T10:05:27+02:00</time>
      </trkpt>
      <trkpt lat="46.68037" lon="5.94619">
        <ele>730</ele>
        <time>2021-05-10T10:05:32+02:00</time>
      </trkpt>
      <trkpt lat="46.68018" lon="5.94726">
        <ele>743</ele>
        <time>2021-05-10T10:05:37+02:00</time>
      </trkpt>
      <trkpt lat="46.68019" lon="5.94775">
        <ele>750</ele>
        <time>2021-05-10T10:05:42+02:00</time>
      </trkpt>
      <trkpt lat="46.68035" lon="5.94809">
        <ele>755</ele>
        <time>2021-05-10T10:05:47+02:00</time>
      </trkpt>
      <trkpt lat="46.68074" lon="5.94849">
        <ele>760</ele>
        <time>2021-05-10T10:05:52+02:00</time>
      </trkpt>
      <trkpt lat="46.68106" lon="5.94878">
        <ele>762</ele>
        <time>2021-05-10T10:05:57+02:00</time>
      </trkpt>
      <trkpt lat="46.68127" lon="5.9489">
        <ele>762</ele>
        <time>2021-05-10T10:06:02+02:00</time>
      </trkpt>
      <trkpt lat="46.68137" lon="5.94919">
        <ele>766</ele>
        <time>2021-05-10T10:06:07+02:00</time>
      </trkpt>
      <trkpt lat="46.68132" lon="5.9497">
        <ele>770</ele>
        <time>2021-05-10T10:06:12+02:00</time>
      </trkpt>
      <trkpt lat="46.68154" lon="5.95036">
        <ele>768</ele>
        <time>2021-05-10T10:06:17+02:00</time>
      </trkpt>
      <trkpt lat="46.68174" lon="5.95051">
        <ele>765</ele>
        <time>2021-05-10T10:06:22+02:00</time>
      </trkpt>
      <trkpt lat="46.68189" lon="5.95059">
        <ele>765</ele>
        <time>2021-05-10T10:06:27+02:00</time>
      </trkpt>
      <trkpt lat="46.68228" lon="5.95062">
        <ele>764</ele>
        <time>2021-05-10T10:06:32+02:00</time>
      </trkpt>
      <trkpt lat="46.68248" lon="5.95084">
        <ele>766</ele>
        <time>2021-05-10T10:06:37+02:00</time>
      </trkpt>
      <trkpt lat="46.68269" lon="5.95097">
        <ele>760</ele>
        <time>2021-05-10T10:06:42+02:00</time>
      </trkpt>
      <trkpt lat="46.68304" lon="5.951">
        <ele>756</ele>
        <time>2021-05-10T10:06:47+02:00</time>
      </trkpt>
      <trkpt lat="46.68314" lon="5.95108">
        <ele>753</ele>
        <time>2021-05-10T10:06:52+02:00</time>
      </trkpt>
      <trkpt lat="46.68315" lon="5.95133">
        <ele>745</ele>
        <time>2021-05-10T10:06:57+02:00</time>
      </trkpt>
      <trkpt lat="46.68314" lon="5.95108">
        <ele>753</ele>
        <time>2021-05-10T10:07:02+02:00</time>
      </trkpt>
      <trkpt lat="46.68305" lon="5.95101">
        <ele>756</ele>
        <time>2021-05-10T10:07:07+02:00</time>
      </trkpt>
      <trkpt lat="46.6827" lon="5.95099">
        <ele>760</ele>
        <time>2021-05-10T10:07:12+02:00</time>
      </trkpt>
      <trkpt lat="46.68247" lon="5.95082">
        <ele>766</ele>
        <time>2021-05-10T10:07:17+02:00</time>
      </trkpt>
      <trkpt lat="46.68228" lon="5.95062">
        <ele>764</ele>
        <time>2021-05-10T10:07:22+02:00</time>
      </trkpt>
      <trkpt lat="46.6819" lon="5.95059">
        <ele>765</ele>
        <time>2021-05-10T10:07:27+02:00</time>
      </trkpt>
      <trkpt lat="46.68154" lon="5.95037">
        <ele>768</ele>
        <time>2021-05-10T10:07:32+02:00</time>
      </trkpt>
      <trkpt lat="46.68131" lon="5.94975">
        <ele>771</ele>
        <time>2021-05-10T10:07:37+02:00</time>
      </trkpt>
      <trkpt lat="46.6812" lon="5.94998">
        <ele>775</ele>
        <time>2021-05-10T10:07:42+02:00</time>
      </trkpt>
      <trkpt lat="46.68102" lon="5.95017">
        <ele>775</ele>
        <time>2021-05-10T10:07:47+02:00</time>
      </trkpt>
      <trkpt lat="46.6808" lon="5.95024">
        <ele>777</ele>
        <time>2021-05-10T10:07:52+02:00</time>
      </trkpt>
      <trkpt lat="46.68063" lon="5.95025">
        <ele>779</ele>
        <time>2021-05-10T10:07:57+02:00</time>
      </trkpt>
      <trkpt lat="46.68012" lon="5.94989">
        <ele>787</ele>
        <time>2021-05-10T10:08:02+02:00</time>
      </trkpt>
      <trkpt lat="46.67996" lon="5.94997">
        <ele>790</ele>
        <time>2021-05-10T10:08:07+02:00</time>
      </trkpt>
      <trkpt lat="46.67977" lon="5.95039">
        <ele>786</ele>
        <time>2021-05-10T10:08:12+02:00</time>
      </trkpt>
      <trkpt lat="46.67939" lon="5.95055">
        <ele>785</ele>
        <time>2021-05-10T10:08:17+02:00</time>
      </trkpt>
      <trkpt lat="46.67893" lon="5.95058">
        <ele>784</ele>
        <time>2021-05-10T10:08:22+02:00</time>
      </trkpt>
      <trkpt lat="46.67843" lon="5.9508">
        <ele>776</ele>
        <time>2021-05-10T10:08:27+02:00</time>
      </trkpt>
      <trkpt lat="46.67786" lon="5.95096">
        <ele>772</ele>
        <time>2021-05-10T10:08:32+02:00</time>
      </trkpt>
      <trkpt lat="46.67732" lon="5.95124">
        <ele>769</ele>
        <time>2021-05-10T10:08:37+02:00</time>
      </trkpt>
      <trkpt lat="46.67802" lon="5.95197">
        <ele>757</ele>
        <time>2021-05-10T10:08:42+02:00</time>
      </trkpt>
      <trkpt lat="46.67828" lon="5.95218">
        <ele>754</ele>
        <time>2021-05-10T10:08:47+02:00</time>
      </trkpt>
      <trkpt lat="46.67879" lon="5.95215">
        <ele>755</ele>
        <time>2021-05-10T10:08:52+02:00</time>
      </trkpt>
      <trkpt lat="46.6791" lon="5.95248">
        <ele>749</ele>
        <time>2021-05-10T10:08:57+02:00</time>
      </trkpt>
      <trkpt lat="46.6795" lon="5.95252">
        <ele>745</ele>
        <time>2021-05-10T10:09:02+02:00</time>
      </trkpt>
      <trkpt lat="46.68011" lon="5.95243">
        <ele>739</ele>
        <time>2021-05-10T10:09:07+02:00</time>
      </trkpt>
      <trkpt lat="46.68093" lon="5.95247">
        <ele>731</ele>
        <time>2021-05-10T10:09:12+02:00</time>
      </trkpt>
      <trkpt lat="46.68109" lon="5.95254">
        <ele>728</ele>
        <time>2021-05-10T10:09:17+02:00</time>
      </trkpt>
      <trkpt lat="46.68119" lon="5.95228">
        <ele>732</ele>
        <time>2021-05-10T10:09:22+02:00</time>
      </trkpt>
      <trkpt lat="46.68123" lon="5.95184">
        <ele>741</ele>
        <time>2021-05-10T10:09:27+02:00</time>
      </trkpt>
      <trkpt lat="46.68158" lon="5.95164">
        <ele>745</ele>
        <time>2021-05-10T10:09:32+02:00</time>
      </trkpt>
      <trkpt lat="46.68206" lon="5.95165">
        <ele>743</ele>
        <time>2021-05-10T10:09:37+02:00</time>
      </trkpt>
      <trkpt lat="46.68232" lon="5.95152">
        <ele>746</ele>
        <time>2021-05-10T10:09:42+02:00</time>
      </trkpt>
      <trkpt lat="46.68254" lon="5.9515">
        <ele>746</ele>
        <time>2021-05-10T10:09:47+02:00</time>
      </trkpt>
      <trkpt lat="46.68271" lon="5.95155">
        <ele>743</ele>
        <time>2021-05-10T10:09:52+02:00</time>
      </trkpt>
      <trkpt lat="46.68308" lon="5.95142">
        <ele>743</ele>
        <time>2021-05-10T10:09:57+02:00</time>
      </trkpt>
      <trkpt lat="46.68271" lon="5.95155">
        <ele>743</ele>
        <time>2021-05-10T10:10:02+02:00</time>
      </trkpt>
      <trkpt lat="46.6826" lon="5.95148">
        <ele>746</ele>
        <time>2021-05-10T10:10:07+02:00</time>
      </trkpt>
      <trkpt lat="46.68232" lon="5.95152">
        <ele>746</ele>
        <time>2021-05-10T10:10:12+02:00</time>
      </trkpt>
      <trkpt lat="46.68206" lon="5.95164">
        <ele>743</ele>
        <time>2021-05-10T10:10:17+02:00</time>
      </trkpt>
      <trkpt lat="46.68159" lon="5.95163">
        <ele>745</ele>
        <time>2021-05-10T10:10:22+02:00</time>
      </trkpt>
      <trkpt lat="46.68124" lon="5.95184">
        <ele>741</ele>
        <time>2021-05-10T10:10:27+02:00</time>
      </trkpt>
      <trkpt lat="46.68118" lon="5.95228">
        <ele>732</ele>
        <time>2021-05-10T10:10:32+02:00</time>
      </trkpt>
      <trkpt lat="46.68109" lon="5.95255">
        <ele>728</ele>
        <time>2021-05-10T10:10:37+02:00</time>
      </trkpt>
      <trkpt lat="46.68116" lon="5.95266">
        <ele>724</ele>
        <time>2021-05-10T10:10:42+02:00</time>
      </trkpt>
      <trkpt lat="46.68119" lon="5.95301">
        <ele>716</ele>
        <time>2021-05-10T10:10:47+02:00</time>
      </trkpt>
      <trkpt lat="46.68139" lon="5.95298">
        <ele>712</ele>
        <time>2021-05-10T10:10:52+02:00</time>
      </trkpt>
      <trkpt lat="46.68154" lon="5.95306">
        <ele>707</ele>
        <time>2021-05-10T10:10:57+02:00</time>
      </trkpt>
      <trkpt lat="46.68179" lon="5.95332">
        <ele>690</ele>
        <time>2021-05-10T10:11:02+02:00</time>
      </trkpt>
      <trkpt lat="46.68156" lon="5.95307">
        <ele>706</ele>
        <time>2021-05-10T10:11:07+02:00</time>
      </trkpt>
      <trkpt lat="46.68139" lon="5.953">
        <ele>712</ele>
        <time>2021-05-10T10:11:12+02:00</time>
      </trkpt>
      <trkpt lat="46.68119" lon="5.95299">
        <ele>716</ele>
        <time>2021-05-10T10:11:17+02:00</time>
      </trkpt>
      <trkpt lat="46.68104" lon="5.95316">
        <ele>716</ele>
        <time>2021-05-10T10:11:22+02:00</time>
      </trkpt>
      <trkpt lat="46.68085" lon="5.95321">
        <ele>720</ele>
        <time>2021-05-10T10:11:27+02:00</time>
      </trkpt>
      <trkpt lat="46.68075" lon="5.9535">
        <ele>715</ele>
        <time>2021-05-10T10:11:32+02:00</time>
      </trkpt>
      <trkpt lat="46.68046" lon="5.95381">
        <ele>712</ele>
        <time>2021-05-10T10:11:37+02:00</time>
      </trkpt>
      <trkpt lat="46.68007" lon="5.95468">
        <ele>704</ele>
        <time>2021-05-10T10:11:42+02:00</time>
      </trkpt>
      <trkpt lat="46.6797" lon="5.95526">
        <ele>700</ele>
        <time>2021-05-10T10:11:47+02:00</time>
      </trkpt>
      <trkpt lat="46.67932" lon="5.9557">
        <ele>701</ele>
        <time>2021-05-10T10:11:52+02:00</time>
      </trkpt>
      <trkpt lat="46.67869" lon="5.95649">
        <ele>697</ele>
        <time>2021-05-10T10:11:57+02:00</time>
      </trkpt>
      <trkpt lat="46.67833" lon="5.95682">
        <ele>699</ele>
        <time>2021-05-10T10:12:02+02:00</time>
      </trkpt>
      <trkpt lat="46.67797" lon="5.95727">
        <ele>703</ele>
        <time>2021-05-10T10:12:07+02:00</time>
      </trkpt>
      <trkpt lat="46.6775" lon="5.95823">
        <ele>715</ele>
        <time>2021-05-10T10:12:12+02:00</time>
      </trkpt>
      <trkpt lat="46.67739" lon="5.95896">
        <ele>724</ele>
        <time>2021-05-10T10:12:17+02:00</time>
      </trkpt>
      <trkpt lat="46.67733" lon="5.95955">
        <ele>734</ele>
        <time>2021-05-10T10:12:22+02:00</time>
      </trkpt>
      <trkpt lat="46.67738" lon="5.95995">
        <ele>739</ele>
        <time>2021-05-10T10:12:27+02:00</time>
      </trkpt>
      <trkpt lat="46.67754" lon="5.96218">
        <ele>746</ele>
        <time>2021-05-10T10:12:32+02:00</time>
      </trkpt>
      <trkpt lat="46.6775" lon="5.96356">
        <ele>752</ele>
        <time>2021-05-10T10:12:37+02:00</time>
      </trkpt>
      <trkpt lat="46.67732" lon="5.96435">
        <ele>753</ele>
        <time>2021-05-10T10:12:42+02:00</time>
      </trkpt>
      <trkpt lat="46.67705" lon="5.96503">
        <ele>753</ele>
        <time>2021-05-10T10:12:47+02:00</time>
      </trkpt>
      <trkpt lat="46.67671" lon="5.96547">
        <ele>754</ele>
        <time>2021-05-10T10:12:52+02:00</time>
      </trkpt>
      <trkpt lat="46.67624" lon="5.96533">
        <ele>751</ele>
        <time>2021-05-10T10:12:57+02:00</time>
      </trkpt>
      <trkpt lat="46.67607" lon="5.96587">
        <ele>749</ele>
        <time>2021-05-10T10:13:02+02:00</time>
      </trkpt>
      <trkpt lat="46.67609" lon="5.96606">
        <ele>749</ele>
        <time>2021-05-10T10:13:07+02:00</time>
      </trkpt>
      <trkpt lat="46.67606" lon="5.96626">
        <ele>747</ele>
        <time>2021-05-10T10:13:12+02:00</time>
      </trkpt>
      <trkpt lat="46.67605" lon="5.9671">
        <ele>738</ele>
        <time>2021-05-10T10:13:17+02:00</time>
      </trkpt>
      <trkpt lat="46.67613" lon="5.96745">
        <ele>732</ele>
        <time>2021-05-10T10:13:22+02:00</time>
      </trkpt>
      <trkpt lat="46.67621" lon="5.96756">
        <ele>730</ele>
        <time>2021-05-10T10:13:27+02:00</time>
      </trkpt>
      <trkpt lat="46.67634" lon="5.96762">
        <ele>728</ele>
        <time>2021-05-10T10:13:32+02:00</time>
      </trkpt>
      <trkpt lat="46.67646" lon="5.96765">
        <ele>726</ele>
        <time>2021-05-10T10:13:37+02:00</time>
      </trkpt>
      <trkpt lat="46.67669" lon="5.9676">
        <ele>726</ele>
        <time>2021-05-10T10:13:42+02:00</time>
      </trkpt>
      <trkpt lat="46.67689" lon="5.96755">
        <ele>723</ele>
        <time>2021-05-10T10:13:47+02:00</time>
      </trkpt>
      <trkpt lat="46.67711" lon="5.96745">
        <ele>721</ele>
        <time>2021-05-10T10:13:52+02:00</time>
      </trkpt>
      <trkpt lat="46.67729" lon="5.96739">
        <ele>719</ele>
        <time>2021-05-10T10:13:57+02:00</time>
      </trkpt>
      <trkpt lat="46.67751" lon="5.96726">
        <ele>719</ele>
        <time>2021-05-10T10:14:02+02:00</time>
      </trkpt>
      <trkpt lat="46.6777" lon="5.96715">
        <ele>715</ele>
        <time>2021-05-10T10:14:07+02:00</time>
      </trkpt>
      <trkpt lat="46.67785" lon="5.967">
        <ele>715</ele>
        <time>2021-05-10T10:14:12+02:00</time>
      </trkpt>
      <trkpt lat="46.67802" lon="5.9668">
        <ele>714</ele>
        <time>2021-05-10T10:14:17+02:00</time>
      </trkpt>
      <trkpt lat="46.67817" lon="5.96656">
        <ele>714</ele>
        <time>2021-05-10T10:14:22+02:00</time>
      </trkpt>
      <trkpt lat="46.67828" lon="5.96634">
        <ele>713</ele>
        <time>2021-05-10T10:14:27+02:00</time>
      </trkpt>
      <trkpt lat="46.67836" lon="5.96604">
        <ele>715</ele>
        <time>2021-05-10T10:14:32+02:00</time>
      </trkpt>
      <trkpt lat="46.67842" lon="5.96572">
        <ele>716</ele>
        <time>2021-05-10T10:14:37+02:00</time>
      </trkpt>
      <trkpt lat="46.67844" lon="5.96541">
        <ele>717</ele>
        <time>2021-05-10T10:14:42+02:00</time>
      </trkpt>
      <trkpt lat="46.67845" lon="5.96501">
        <ele>719</ele>
        <time>2021-05-10T10:14:47+02:00</time>
      </trkpt>
      <trkpt lat="46.67856" lon="5.96482">
        <ele>716</ele>
        <time>2021-05-10T10:14:52+02:00</time>
      </trkpt>
      <trkpt lat="46.67878" lon="5.96477">
        <ele>711</ele>
        <time>2021-05-10T10:14:57+02:00</time>
      </trkpt>
      <trkpt lat="46.67923" lon="5.96487">
        <ele>701</ele>
        <time>2021-05-10T10:15:02+02:00</time>
      </trkpt>
      <trkpt lat="46.67945" lon="5.96414">
        <ele>694</ele>
        <time>2021-05-10T10:15:07+02:00</time>
      </trkpt>
      <trkpt lat="46.67931" lon="5.96404">
        <ele>694</ele>
        <time>2021-05-10T10:15:12+02:00</time>
      </trkpt>
      <trkpt lat="46.67927" lon="5.96392">
        <ele>693</ele>
        <time>2021-05-10T10:15:17+02:00</time>
      </trkpt>
      <trkpt lat="46.67936" lon="5.96336">
        <ele>684</ele>
        <time>2021-05-10T10:15:22+02:00</time>
      </trkpt>
      <trkpt lat="46.67934" lon="5.96315">
        <ele>681</ele>
        <time>2021-05-10T10:15:27+02:00</time>
      </trkpt>
      <trkpt lat="46.6791" lon="5.96253">
        <ele>676</ele>
        <time>2021-05-10T10:15:32+02:00</time>
      </trkpt>
      <trkpt lat="46.67888" lon="5.96193">
        <ele>672</ele>
        <time>2021-05-10T10:15:37+02:00</time>
      </trkpt>
      <trkpt lat="46.67886" lon="5.96168">
        <ele>668</ele>
        <time>2021-05-10T10:15:42+02:00</time>
      </trkpt>
      <trkpt lat="46.67885" lon="5.96143">
        <ele>664</ele>
        <time>2021-05-10T10:15:47+02:00</time>
      </trkpt>
      <trkpt lat="46.67888" lon="5.96114">
        <ele>658</ele>
        <time>2021-05-10T10:15:52+02:00</time>
      </trkpt>
      <trkpt lat="46.67902" lon="5.96071">
        <ele>645</ele>
        <time>2021-05-10T10:15:57+02:00</time>
      </trkpt>
      <trkpt lat="46.67906" lon="5.96033">
        <ele>639</ele>
        <time>2021-05-10T10:16:02+02:00</time>
      </trkpt>
      <trkpt lat="46.67907" lon="5.95983">
        <ele>636</ele>
        <time>2021-05-10T10:16:07+02:00</time>
      </trkpt>
      <trkpt lat="46.6792" lon="5.95942">
        <ele>628</ele>
        <time>2021-05-10T10:16:12+02:00</time>
      </trkpt>
      <trkpt lat="46.67935" lon="5.95918">
        <ele>623</ele>
        <time>2021-05-10T10:16:17+02:00</time>
      </trkpt>
      <trkpt lat="46.67951" lon="5.95934">
        <ele>618</ele>
        <time>2021-05-10T10:16:22+02:00</time>
      </trkpt>
      <trkpt lat="46.67968" lon="5.95941">
        <ele>612</ele>
        <time>2021-05-10T10:16:27+02:00</time>
      </trkpt>
      <trkpt lat="46.67975" lon="5.95932">
        <ele>610</ele>
        <time>2021-05-10T10:16:32+02:00</time>
      </trkpt>
      <trkpt lat="46.67991" lon="5.95909">
        <ele>605</ele>
        <time>2021-05-10T10:16:37+02:00</time>
      </trkpt>
      <trkpt lat="46.68008" lon="5.95875">
        <ele>603</ele>
        <time>2021-05-10T10:16:42+02:00</time>
      </trkpt>
      <trkpt lat="46.68027" lon="5.95861">
        <ele>600</ele>
        <time>2021-05-10T10:16:47+02:00</time>
      </trkpt>
      <trkpt lat="46.6808" lon="5.95765">
        <ele>595</ele>
        <time>2021-05-10T10:16:52+02:00</time>
      </trkpt>
      <trkpt lat="46.6811" lon="5.95712">
        <ele>596</ele>
        <time>2021-05-10T10:16:57+02:00</time>
      </trkpt>
      <trkpt lat="46.68158" lon="5.95632">
        <ele>594</ele>
        <time>2021-05-10T10:17:02+02:00</time>
      </trkpt>
      <trkpt lat="46.68195" lon="5.95596">
        <ele>588</ele>
        <time>2021-05-10T10:17:07+02:00</time>
      </trkpt>
      <trkpt lat="46.68226" lon="5.95584">
        <ele>579</ele>
        <time>2021-05-10T10:17:12+02:00</time>
      </trkpt>
      <trkpt lat="46.68248" lon="5.95592">
        <ele>571</ele>
        <time>2021-05-10T10:17:17+02:00</time>
      </trkpt>
      <trkpt lat="46.68287" lon="5.95541">
        <ele>571</ele>
        <time>2021-05-10T10:17:22+02:00</time>
      </trkpt>
      <trkpt lat="46.68305" lon="5.95525">
        <ele>568</ele>
        <time>2021-05-10T10:17:27+02:00</time>
      </trkpt>
      <trkpt lat="46.68329" lon="5.95509">
        <ele>563</ele>
        <time>2021-05-10T10:17:32+02:00</time>
      </trkpt>
      <trkpt lat="46.68391" lon="5.95475">
        <ele>559</ele>
        <time>2021-05-10T10:17:37+02:00</time>
      </trkpt>
      <trkpt lat="46.68432" lon="5.95442">
        <ele>561</ele>
        <time>2021-05-10T10:17:42+02:00</time>
      </trkpt>
      <trkpt lat="46.68459" lon="5.95421">
        <ele>561</ele>
        <time>2021-05-10T10:17:47+02:00</time>
      </trkpt>
      <trkpt lat="46.68482" lon="5.9541">
        <ele>559</ele>
        <time>2021-05-10T10:17:52+02:00</time>
      </trkpt>
      <trkpt lat="46.68529" lon="5.95398">
        <ele>556</ele>
        <time>2021-05-10T10:17:57+02:00</time>
      </trkpt>
      <trkpt lat="46.68561" lon="5.95384">
        <ele>555</ele>
        <time>2021-05-10T10:18:02+02:00</time>
      </trkpt>
      <trkpt lat="46.68597" lon="5.95363">
        <ele>553</ele>
        <time>2021-05-10T10:18:07+02:00</time>
      </trkpt>
      <trkpt lat="46.68694" lon="5.95289">
        <ele>554</ele>
        <time>2021-05-10T10:18:12+02:00</time>
      </trkpt>
      <trkpt lat="46.68717" lon="5.95267">
        <ele>553</ele>
        <time>2021-05-10T10:18:17+02:00</time>
      </trkpt>
      <trkpt lat="46.68732" lon="5.95244">
        <ele>553</ele>
        <time>2021-05-10T10:18:22+02:00</time>
      </trkpt>
      <trkpt lat="46.6874" lon="5.95223">
        <ele>554</ele>
        <time>2021-05-10T10:18:27+02:00</time>
      </trkpt>
      <trkpt lat="46.68753" lon="5.95176">
        <ele>558</ele>
        <time>2021-05-10T10:18:32+02:00</time>
      </trkpt>
      <trkpt lat="46.68767" lon="5.9514">
        <ele>559</ele>
        <time>2021-05-10T10:18:37+02:00</time>
      </trkpt>
      <trkpt lat="46.6879" lon="5.95099">
        <ele>557</ele>
        <time>2021-05-10T10:18:42+02:00</time>
      </trkpt>
      <trkpt lat="46.68828" lon="5.95055">
        <ele>546</ele>
        <time>2021-05-10T10:18:47+02:00</time>
      </trkpt>
      <trkpt lat="46.6886" lon="5.95037">
        <ele>543</ele>
        <time>2021-05-10T10:18:52+02:00</time>
      </trkpt>
      <trkpt lat="46.68826" lon="5.95053">
        <ele>546</ele>
        <time>2021-05-10T10:18:57+02:00</time>
      </trkpt>
      <trkpt lat="46.68828" lon="5.95029">
        <ele>546</ele>
        <time>2021-05-10T10:19:02+02:00</time>
      </trkpt>
      <trkpt lat="46.68826" lon="5.94946">
        <ele>548</ele>
        <time>2021-05-10T10:19:07+02:00</time>
      </trkpt>
      <trkpt lat="46.68825" lon="5.94855">
        <ele>545</ele>
        <time>2021-05-10T10:19:12+02:00</time>
      </trkpt>
      <trkpt lat="46.6883" lon="5.94819">
        <ele>541</ele>
        <time>2021-05-10T10:19:17+02:00</time>
      </trkpt>
      <trkpt lat="46.68865" lon="5.94734">
        <ele>535</ele>
        <time>2021-05-10T10:19:22+02:00</time>
      </trkpt>
      <trkpt lat="46.68878" lon="5.94709">
        <ele>534</ele>
        <time>2021-05-10T10:19:27+02:00</time>
      </trkpt>
      <trkpt lat="46.68887" lon="5.94699">
        <ele>534</ele>
        <time>2021-05-10T10:19:32+02:00</time>
      </trkpt>
    </trkseg>
  </trk>
</gpx>